Time;durP1;ratioP1;P1;durP2;ratioP2;P2;SDS_P1;SDS_P2;PMS_P1;PMS_P2;Temp;Humidity;BMP_temperature;BMP_pressure;BME280_temperature;BME280_humidity;BME280_pressure;Samples;Min_cycle;Max_cycle;Signal;HPM_P1;HPM_P2
2022/07/15 00:02:19;;;;;;;;;;;;;;;21.47;28.77;97902.50;4940511;29;1013;-75
2022/07/15 00:04:45;;;;;;;;;;;;;;;21.35;29.04;97906.06;4940099;29;1068;-75
2022/07/15 00:07:10;;;;;;;;;;;;;;;21.32;28.97;97900.06;4940102;29;963;-75
2022/07/15 00:12:20;;;;;;;;;;;;;;;21.24;29.20;97907.13;4939770;29;948;-75
2022/07/15 00:14:45;;;;;;;;;;;;;;;21.40;29.00;97895.03;4939571;29;1906;-75
2022/07/15 00:17:11;;;;;;;;;;;;;;;21.21;29.25;97902.34;4939931;29;889;-75
2022/07/15 00:19:36;;;;;;;;;;;;;;;21.18;29.40;97891.13;4940123;29;1091;-75
2022/07/15 00:22:02;;;;;;;;;;;;;;;21.27;29.31;97897.75;4940094;29;946;-74
2022/07/15 00:24:27;;;;;;;;;;;;;;;21.21;29.12;97891.03;4938109;29;1302;-75
2022/07/15 00:26:53;;;;;;;;;;;;;;;21.40;28.92;97894.19;4937362;29;1070;-75
2022/07/15 00:29:18;;;;;;;;;;;;;;;21.73;28.76;97892.84;4937198;29;974;-75
2022/07/15 00:31:44;;;;;;;;;;;;;;;21.74;29.49;97894.44;4937063;29;1052;-75
2022/07/15 00:34:09;;;;;;;;;;;;;;;21.67;29.50;97900.31;4921670;29;1249;-76
2022/07/15 00:36:35;;;;;;;;;;;;;;;21.70;29.33;97893.75;4937196;29;1910;-75
2022/07/15 00:39:00;;;;;;;;;;;;;;;21.35;29.89;97889.06;4937381;29;1013;-75
2022/07/15 00:41:26;;;;;;;;;;;;;;;21.42;29.74;97883.25;4937124;29;983;-76
2022/07/15 00:43:51;;;;;;;;;;;;;;;21.59;29.15;97881.94;4937575;29;1016;-75
2022/07/15 00:46:17;;;;;;;;;;;;;;;21.34;29.84;97882.63;4937071;29;1094;-75
2022/07/15 00:48:43;;;;;;;;;;;;;;;21.38;29.43;97891.03;4936940;29;885;-75
2022/07/15 00:51:08;;;;;;;;;;;;;;;21.32;29.64;97885.91;4937155;29;960;-75
2022/07/15 00:53:34;;;;;;;;;;;;;;;21.43;29.51;97885.63;4936693;29;980;-75
2022/07/15 00:55:59;;;;;;;;;;;;;;;21.39;29.48;97879.25;4937039;29;1914;-75
2022/07/15 00:58:25;;;;;;;;;;;;;;;21.37;29.22;97873.25;4938462;29;897;-75
2022/07/15 01:00:51;;;;;;;;;;;;;;;21.39;29.17;97875.63;4922396;29;1228;-75
2022/07/15 01:03:17;;;;;;;;;;;;;;;21.28;29.74;97868.19;4939362;29;1083;-75
2022/07/15 01:05:42;;;;;;;;;;;;;;;21.00;29.85;97866.16;4898820;29;1237;-75
2022/07/15 01:08:08;;;;;;;;;;;;;;;21.25;29.34;97863.44;4883623;29;1028;-75
2022/07/15 01:10:34;;;;;;;;;;;;;;;21.16;29.70;97865.31;4898991;29;867;-74
2022/07/15 01:13:02;;;;;;;;;;;;;;;21.50;28.98;97861.97;4898776;29;1147;-75
2022/07/15 01:15:28;;;;;;;;;;;;;;;21.41;29.30;97859.00;4879872;29;1895;-75
2022/07/15 01:17:53;;;;;;;;;;;;;;;21.19;29.34;97853.91;4880088;29;968;-75
2022/07/15 01:20:20;;;;;;;;;;;;;;;21.24;29.50;97844.06;4864432;29;1149;-75
2022/07/15 01:22:56;;;;;;;;;;;;;;;21.42;28.90;97852.09;4864541;29;1228;-75
2022/07/15 01:25:27;;;;;;;;;;;;;;;21.33;29.35;97853.53;4864165;29;1296;-75
2022/07/15 01:27:54;;;;;;;;;;;;;;;21.36;29.22;97848.25;4842553;29;1230;-75
2022/07/15 01:30:23;;;;;;;;;;;;;;;21.41;28.96;97854.16;4828198;29;1301;-75
2022/07/15 01:32:49;;;;;;;;;;;;;;;21.56;29.33;97848.88;4812538;29;1301;-75
2022/07/15 01:35:15;;;;;;;;;;;;;;;21.84;29.03;97850.84;4842841;29;1900;-75
2022/07/15 01:37:44;;;;;;;;;;;;;;;21.66;29.51;97847.78;4813476;29;1440;-75
2022/07/15 01:40:10;;;;;;;;;;;;;;;21.58;29.53;97852.03;4828305;29;956;-75
2022/07/15 01:42:36;;;;;;;;;;;;;;;21.31;29.64;97847.53;4843630;29;1076;-75
2022/07/15 01:45:01;;;;;;;;;;;;;;;21.42;29.25;97843.63;4843539;29;1118;-75
2022/07/15 01:47:27;;;;;;;;;;;;;;;21.26;29.79;97848.06;4843245;29;1092;-75
2022/07/15 01:49:54;;;;;;;;;;;;;;;21.22;29.56;97846.56;4828157;29;1143;-75
2022/07/15 01:52:40;;;;;;;;;;;;;;;21.30;29.50;97843.13;4843669;29;941;-75
2022/07/15 01:55:06;;;;;;;;;;;;;;;21.57;29.19;97839.13;4895955;29;1966;-75
2022/07/15 01:57:31;;;;;;;;;;;;;;;21.76;29.17;97843.81;4880109;29;1127;-75
2022/07/15 01:59:57;;;;;;;;;;;;;;;21.91;29.02;97841.34;4883871;29;1567;-74
2022/07/15 02:02:42;;;;;;;;;;;;;;;21.58;29.46;97841.50;4870386;29;970;-75
2022/07/15 02:05:07;;;;;;;;;;;;;;;21.22;29.93;97841.69;4846265;29;950;-76
2022/07/15 02:07:33;;;;;;;;;;;;;;;21.47;29.23;97843.06;4832678;29;1607;-75
2022/07/15 02:09:58;;;;;;;;;;;;;;;21.29;29.56;97847.13;4886346;29;1399;-75
2022/07/15 02:12:25;;;;;;;;;;;;;;;21.53;29.02;97838.44;4886381;29;1355;-75
2022/07/15 02:14:54;;;;;;;;;;;;;;;21.39;29.43;97847.31;4886302;29;1903;-75
2022/07/15 02:17:22;;;;;;;;;;;;;;;21.26;29.78;97842.38;4886265;29;1228;-75
2022/07/15 02:19:48;;;;;;;;;;;;;;;21.33;29.42;97842.22;4882624;29;1182;-75
2022/07/15 02:22:14;;;;;;;;;;;;;;;21.30;29.20;97843.13;4864217;29;956;-76
2022/07/15 02:24:39;;;;;;;;;;;;;;;21.65;28.96;97843.31;4848883;29;1156;-75
2022/07/15 02:27:05;;;;;;;;;;;;;;;21.75;29.20;97844.25;4864228;29;1076;-75
2022/07/15 02:29:30;;;;;;;;;;;;;;;21.78;28.86;97846.19;4864396;29;952;-76
2022/07/15 02:31:56;;;;;;;;;;;;;;;21.27;29.64;97843.19;4848852;29;1238;-75
2022/07/15 02:34:21;;;;;;;;;;;;;;;21.39;29.27;97842.47;4864195;29;1285;-76
2022/07/15 02:36:47;;;;;;;;;;;;;;;21.33;29.50;97839.38;4878481;29;1063;-75
2022/07/15 02:39:13;;;;;;;;;;;;;;;21.40;29.49;97840.41;4867193;29;1174;-75
2022/07/15 02:41:41;;;;;;;;;;;;;;;21.38;29.37;97842.91;4867261;29;1292;-75
2022/07/15 02:44:09;;;;;;;;;;;;;;;21.25;29.54;97840.81;4852065;29;1255;-75
2022/07/15 02:46:37;;;;;;;;;;;;;;;21.20;29.60;97837.72;4852177;29;1179;-75
2022/07/15 02:49:03;;;;;;;;;;;;;;;21.50;29.44;97842.16;4866815;29;1130;-75
2022/07/15 02:51:29;;;;;;;;;;;;;;;21.67;28.77;97838.03;4882164;29;1184;-75
2022/07/15 02:53:54;;;;;;;;;;;;;;;21.89;28.55;97837.38;4897133;29;1008;-75
2022/07/15 02:56:22;;;;;;;;;;;;;;;21.64;28.99;97838.91;4901079;29;1991;-75
2022/07/15 02:58:48;;;;;;;;;;;;;;;21.36;29.28;97839.75;4885475;29;1111;-75
2022/07/15 03:01:15;;;;;;;;;;;;;;;21.39;29.17;97838.84;4885368;29;1125;-75
2022/07/15 03:03:40;;;;;;;;;;;;;;;21.45;29.17;97837.03;4881904;29;1141;-75
2022/07/15 03:06:10;;;;;;;;;;;;;;;21.37;29.31;97835.66;4851822;29;1126;-76
2022/07/15 03:08:36;;;;;;;;;;;;;;;21.24;29.48;97833.56;4851325;29;1142;-75
2022/07/15 03:11:01;;;;;;;;;;;;;;;21.26;29.18;97836.72;4869819;29;1312;-75
2022/07/15 03:13:27;;;;;;;;;;;;;;;21.26;29.20;97836.72;4900424;29;1022;-75
2022/07/15 03:15:53;;;;;;;;;;;;;;;21.58;28.93;97841.50;4900851;29;1969;-75
2022/07/15 03:18:22;;;;;;;;;;;;;;;21.66;28.63;97836.44;4916385;29;1201;-75
2022/07/15 03:20:48;;;;;;;;;;;;;;;21.52;28.97;97836.84;4866279;29;1252;-75
2022/07/15 03:23:14;;;;;;;;;;;;;;;21.41;28.91;97836.38;4882057;29;995;-74
2022/07/15 03:25:39;;;;;;;;;;;;;;;21.39;29.39;97836.00;4881985;29;951;-74
2022/07/15 03:28:09;;;;;;;;;;;;;;;21.36;29.28;97834.09;4881754;29;1123;-74
2022/07/15 03:30:37;;;;;;;;;;;;;;;21.45;28.83;97834.22;4897369;29;1236;-74
2022/07/15 03:33:02;;;;;;;;;;;;;;;21.35;29.30;97838.13;4897206;29;1130;-75
2022/07/15 03:35:29;;;;;;;;;;;;;;;21.08;29.48;97830.75;4900017;29;1988;-75
2022/07/15 03:37:55;;;;;;;;;;;;;;;21.26;29.29;97835.94;4884825;29;1176;-76
2022/07/15 03:40:20;;;;;;;;;;;;;;;21.16;29.28;97832.16;4884494;29;1145;-75
2022/07/15 03:46:16;;;;;;;;;;;;;;;21.71;28.89;97843.56;4900228;29;953;-75
2022/07/15 03:48:46;;;;;;;;;;;;;;;21.46;29.16;97839.44;4861505;29;980;-75
2022/07/15 03:51:11;;;;;;;;;;;;;;;21.21;29.48;97840.09;4856770;29;1181;-75
2022/07/15 03:53:37;;;;;;;;;;;;;;;21.24;29.52;97844.06;4884411;29;1070;-75
2022/07/15 03:56:02;;;;;;;;;;;;;;;21.36;29.56;97842.56;4881031;29;1899;-75
2022/07/15 03:58:28;;;;;;;;;;;;;;;21.15;29.90;97841.91;4881208;29;1163;-75
2022/07/15 04:00:55;;;;;;;;;;;;;;;21.19;29.58;97839.78;4880328;29;1169;-75
2022/07/15 04:03:20;;;;;;;;;;;;;;;21.24;29.62;97839.22;4881288;29;881;-74
2022/07/15 04:05:46;;;;;;;;;;;;;;;21.25;29.35;97846.47;4873172;29;1152;-75
2022/07/15 04:08:11;;;;;;;;;;;;;;;21.97;28.39;97836.72;4880706;29;1107;-75
2022/07/15 04:10:37;;;;;;;;;;;;;;;21.70;28.81;97842.78;4896497;29;1137;-75
2022/07/15 04:13:02;;;;;;;;;;;;;;;21.44;29.08;97843.94;4880992;29;952;-75
2022/07/15 04:15:29;;;;;;;;;;;;;;;21.41;29.48;97848.47;4864956;29;1981;-75
2022/07/15 04:17:56;;;;;;;;;;;;;;;21.48;29.51;97851.09;4843623;29;1187;-75
2022/07/15 04:20:22;;;;;;;;;;;;;;;21.37;29.69;97847.00;4828475;29;1080;-75
2022/07/15 04:22:51;;;;;;;;;;;;;;;21.53;29.49;97855.41;4810497;29;1120;-75
2022/07/15 04:25:18;;;;;;;;;;;;;;;21.23;29.68;97854.59;4795069;29;1061;-75
2022/07/15 04:27:44;;;;;;;;;;;;;;;21.83;29.54;97857.75;4786397;29;1969;-74
2022/07/15 04:30:11;;;;;;;;;;;;;;;22.31;30.79;97857.97;4789034;29;1115;-71
2022/07/15 04:32:45;;;;;;;;;;;;;;;22.21;32.04;97853.41;4794257;29;1069;-73
2022/07/15 04:35:11;;;;;;;;;;;;;;;22.06;33.37;97858.69;4787995;29;1977;-73
2022/07/15 04:37:37;;;;;;;;;;;;;;;22.20;33.48;97858.28;4769836;30;2024;-78
2022/07/15 04:40:03;;;;;;;;;;;;;;;22.15;34.08;97858.06;4741503;30;1283;-75
2022/07/15 04:42:29;;;;;;;;;;;;;;;22.13;34.07;97861.38;4755808;30;1351;-76
2022/07/15 04:44:55;;;;;;;;;;;;;;;22.20;34.10;97852.63;4755653;30;1479;-78
2022/07/15 04:47:20;;;;;;;;;;;;;;;22.30;33.87;97862.84;4767829;30;1236;-79
2022/07/15 04:52:35;;;;;;;;;;;;;;;22.12;34.31;97859.75;4806468;29;1134;-77
2022/07/15 04:55:02;;;;;;;;;;;;;;;22.26;34.52;97862.16;4788622;30;1915;-75
2022/07/15 04:57:27;;;;;;;;;;;;;;;22.49;33.77;97863.06;4773162;30;1290;-72
2022/07/15 04:59:55;;;;;;;;;;;;;;;21.92;35.04;97859.94;4824061;29;1390;-72
2022/07/15 05:02:20;;;;;;;;;;;;;;;22.04;34.88;97856.31;4824676;29;1634;-70
2022/07/15 05:04:47;;;;;;;;;;;;;;;22.47;33.97;97865.53;4841654;29;996;-75
2022/07/15 05:07:14;;;;;;;;;;;;;;;22.72;33.44;97851.34;4827694;29;1002;-74
2022/07/15 05:09:42;;;;;;;;;;;;;;;22.73;33.45;97850.09;4849885;29;1389;-73
2022/07/15 05:12:07;;;;;;;;;;;;;;;22.66;33.41;97855.22;4845905;29;1152;-77
2022/07/15 05:14:43;;;;;;;;;;;;;;;22.66;33.81;97855.22;4860074;29;1903;-74
2022/07/15 05:17:08;;;;;;;;;;;;;;;23.55;32.50;97852.91;4879586;29;1140;-73
2022/07/15 05:19:34;;;;;;;;;;;;;;;23.76;31.99;97859.88;4879634;29;1120;-73
2022/07/15 05:22:00;;;;;;;;;;;;;;;23.67;31.74;97856.97;4864407;29;1179;-78
2022/07/15 05:24:33;;;;;;;;;;;;;;;23.74;31.62;97853.09;4868406;29;1355;-74
2022/07/15 05:27:02;;;;;;;;;;;;;;;24.04;31.24;97854.38;4863958;29;1369;-74
2022/07/15 05:29:31;;;;;;;;;;;;;;;24.33;31.08;97854.81;4844995;29;1413;-73
2022/07/15 05:31:57;;;;;;;;;;;;;;;24.33;30.34;97854.81;4809596;29;1893;-72
2022/07/15 05:34:24;;;;;;;;;;;;;;;24.30;30.59;97852.94;4810966;29;1238;-76
2022/07/15 05:36:54;;;;;;;;;;;;;;;24.61;30.28;97861.44;4787870;29;1911;-77
2022/07/15 05:39:22;;;;;;;;;;;;;;;24.60;30.33;97861.91;4787941;29;1326;-74
2022/07/15 05:41:48;;;;;;;;;;;;;;;24.37;31.15;97855.50;4788111;29;1258;-75
2022/07/15 05:44:13;;;;;;;;;;;;;;;24.31;30.56;97857.34;4788285;29;1145;-72
2022/07/15 05:46:45;;;;;;;;;;;;;;;24.06;30.84;97857.53;4793145;29;1544;-75
2022/07/15 05:49:11;;;;;;;;;;;;;;;23.85;31.43;97856.31;4791901;29;1584;-73
2022/07/15 05:51:37;;;;;;;;;;;;;;;23.69;31.83;97848.00;4786661;29;1700;-75
2022/07/15 05:54:02;;;;;;;;;;;;;;;23.46;32.27;97850.00;4807752;29;1262;-72
2022/07/15 05:56:28;;;;;;;;;;;;;;;23.81;31.79;97853.59;4786432;29;1978;-75
2022/07/15 05:58:55;;;;;;;;;;;;;;;24.13;31.24;97845.88;4754446;30;1573;-74
2022/07/15 06:01:26;;;;;;;;;;;;;;;23.95;31.05;97845.78;4748514;30;1680;-71
2022/07/15 06:03:52;;;;;;;;;;;;;;;24.20;30.92;97839.94;4755828;30;2238;-72
2022/07/15 06:06:19;;;;;;;;;;;;;;;23.79;31.56;97844.75;4769114;30;983;-76
2022/07/15 06:08:46;;;;;;;;;;;;;;;23.94;31.41;97844.22;4801188;29;1431;-73
2022/07/15 06:11:12;;;;;;;;;;;;;;;24.10;31.15;97852.50;4824395;29;1449;-73
2022/07/15 06:13:39;;;;;;;;;;;;;;;24.38;30.65;97850.59;4790167;29;1163;-74
2022/07/15 06:16:05;;;;;;;;;;;;;;;24.37;30.33;97861.19;4820626;29;1977;-73
2022/07/15 06:18:32;;;;;;;;;;;;;;;24.17;30.81;97846.53;4805044;29;1326;-73
2022/07/15 06:20:57;;;;;;;;;;;;;;;23.66;31.92;97846.88;4805104;29;1274;-73
2022/07/15 06:23:23;;;;;;;;;;;;;;;23.86;31.61;97847.31;4807008;29;1113;-72
2022/07/15 06:25:48;;;;;;;;;;;;;;;24.20;30.87;97851.31;4837240;29;1887;-73
2022/07/15 06:28:14;;;;;;;;;;;;;;;24.07;30.99;97847.75;4874096;29;1564;-74
2022/07/15 06:30:39;;;;;;;;;;;;;;;24.65;30.25;97853.53;4843234;29;1625;-74
2022/07/15 06:33:05;;;;;;;;;;;;;;;24.29;31.10;97844.84;4826512;29;1317;-71
2022/07/15 06:35:30;;;;;;;;;;;;;;;24.56;30.71;97842.16;4808179;29;1911;-74
2022/07/15 06:37:56;;;;;;;;;;;;;;;24.38;30.82;97840.03;4808621;29;1191;-73
2022/07/15 06:40:22;;;;;;;;;;;;;;;24.15;31.28;97843.38;4808580;29;1139;-73
2022/07/15 06:42:47;;;;;;;;;;;;;;;24.40;30.65;97834.69;4793100;29;1143;-76
2022/07/15 06:45:16;;;;;;;;;;;;;;;24.08;31.29;97838.75;4795858;29;1564;-71
2022/07/15 06:47:42;;;;;;;;;;;;;;;23.75;32.05;97838.41;4783893;29;2262;-74
2022/07/15 06:50:08;;;;;;;;;;;;;;;23.84;31.71;97846.22;4773876;29;1602;-74
2022/07/15 06:52:37;;;;;;;;;;;;;;;24.12;31.51;97838.63;4808119;29;1325;-74
2022/07/15 06:55:04;;;;;;;;;;;;;;;24.38;30.87;97840.03;4804465;29;1911;-71
2022/07/15 06:57:31;;;;;;;;;;;;;;;24.56;30.81;97844.22;4790250;30;1239;-78
2022/07/15 06:59:56;;;;;;;;;;;;;;;23.89;32.04;97852.09;4805368;29;1922;-73
2022/07/15 07:02:23;;;;;;;;;;;;;;;23.94;32.02;97844.22;4779484;29;1203;-72
2022/07/15 07:04:48;;;;;;;;;;;;;;;24.08;31.72;97843.63;4823534;29;1603;-70
2022/07/15 07:07:14;;;;;;;;;;;;;;;24.04;31.66;97848.69;4855995;29;1497;-73
2022/07/15 07:09:39;;;;;;;;;;;;;;;23.43;32.50;97844.47;4852477;29;1154;-72
2022/07/15 07:12:05;;;;;;;;;;;;;;;23.14;32.61;97851.16;4866366;29;1157;-73
2022/07/15 07:14:30;;;;;;;;;;;;;;;22.93;32.32;97851.91;4862721;29;985;-73
2022/07/15 07:16:56;;;;;;;;;;;;;;;22.99;31.93;97850.06;4863005;29;1907;-73
2022/07/15 07:19:21;;;;;;;;;;;;;;;22.94;32.02;97848.59;4865167;29;1406;-73
2022/07/15 07:21:47;;;;;;;;;;;;;;;22.92;31.66;97850.31;4881352;29;1025;-73
2022/07/15 07:24:12;;;;;;;;;;;;;;;22.95;31.59;97855.06;4881587;29;1171;-73
2022/07/15 07:26:38;;;;;;;;;;;;;;;22.94;31.36;97847.81;4881551;29;974;-73
2022/07/15 07:29:03;;;;;;;;;;;;;;;22.80;31.21;97855.53;4880501;29;1648;-73
2022/07/15 07:31:29;;;;;;;;;;;;;;;22.70;31.46;97850.22;4810632;29;992;-73
2022/07/15 07:33:55;;;;;;;;;;;;;;;22.85;31.13;97854.97;4810323;29;1094;-72
2022/07/15 07:36:20;;;;;;;;;;;;;;;22.79;30.82;97853.94;4825802;29;1907;-73
2022/07/15 07:38:46;;;;;;;;;;;;;;;22.76;30.96;97848.41;4810814;29;959;-73
2022/07/15 07:41:11;;;;;;;;;;;;;;;22.80;30.95;97847.03;4825934;29;1466;-74
2022/07/15 07:43:37;;;;;;;;;;;;;;;22.62;31.05;97849.66;4807615;29;973;-75
2022/07/15 07:46:02;;;;;;;;;;;;;;;22.48;31.29;97844.44;4820628;29;1081;-73
2022/07/15 07:48:29;;;;;;;;;;;;;;;22.55;30.57;97819.50;4825809;29;1155;-72
2022/07/15 07:50:54;;;;;;;;;;;;;;;22.77;30.55;97838.63;4810197;29;1050;-73
2022/07/15 07:53:20;;;;;;;;;;;;;;;22.69;30.33;97842.94;4825888;29;1005;-73
2022/07/15 07:55:45;;;;;;;;;;;;;;;22.57;30.39;97841.72;4825066;29;1903;-73
2022/07/15 07:58:15;;;;;;;;;;;;;;;22.57;30.50;97833.22;4806966;29;1170;-73
2022/07/15 08:00:41;;;;;;;;;;;;;;;22.49;30.55;97840.38;4806916;29;1099;-73
2022/07/15 08:03:06;;;;;;;;;;;;;;;22.57;30.75;97845.34;4806804;29;1012;-75
2022/07/15 08:05:32;;;;;;;;;;;;;;;22.43;30.76;97847.84;4791921;29;1010;-73
2022/07/15 08:08:11;;;;;;;;;;;;;;;22.63;30.57;97839.91;4807024;29;1520;-73
2022/07/15 08:10:36;;;;;;;;;;;;;;;22.64;30.26;97841.50;4806840;29;1093;-73
2022/07/15 08:13:02;;;;;;;;;;;;;;;22.44;30.52;97843.78;4807051;29;1046;-73
2022/07/15 08:15:28;;;;;;;;;;;;;;;22.57;30.18;97827.53;4806712;29;1927;-73
2022/07/15 08:17:53;;;;;;;;;;;;;;;22.45;30.48;97831.19;4806403;29;1392;-73
2022/07/15 08:20:19;;;;;;;;;;;;;;;22.53;30.24;97833.31;4794781;29;1699;-73
2022/07/15 08:26:11;;;;;;;;;;;;;;;22.39;30.52;97818.84;4833064;29;925;-74
2022/07/15 08:28:36;;;;;;;;;;;;;;;22.64;30.10;97827.31;4846132;29;934;-73
2022/07/15 08:31:02;;;;;;;;;;;;;;;22.40;30.29;97834.59;4842671;29;1189;-73
2022/07/15 08:33:27;;;;;;;;;;;;;;;22.51;30.20;97820.88;4842996;29;990;-74
2022/07/15 08:35:53;;;;;;;;;;;;;;;22.45;30.35;97825.53;4864455;29;1974;-73
2022/07/15 08:38:19;;;;;;;;;;;;;;;22.50;30.25;97824.97;4879718;29;979;-73
2022/07/15 08:40:44;;;;;;;;;;;;;;;22.34;30.53;97823.84;4860974;29;989;-72
2022/07/15 08:43:10;;;;;;;;;;;;;;;22.34;30.44;97825.88;4861142;29;1045;-75
2022/07/15 08:45:37;;;;;;;;;;;;;;;22.44;30.27;97826.78;4845628;29;894;-72
2022/07/15 08:48:03;;;;;;;;;;;;;;;22.43;30.25;97819.50;4858357;29;991;-75
2022/07/15 08:50:28;;;;;;;;;;;;;;;22.36;30.63;97812.81;4842857;29;942;-73
2022/07/15 08:52:54;;;;;;;;;;;;;;;22.44;30.38;97818.28;4842523;29;961;-75
2022/07/15 08:55:19;;;;;;;;;;;;;;;22.38;30.52;97817.25;4851698;29;1915;-75
2022/07/15 08:57:45;;;;;;;;;;;;;;;22.43;30.64;97820.28;4861209;29;1004;-75
2022/07/15 09:00:11;;;;;;;;;;;;;;;22.31;31.01;97810.56;4860990;29;1221;-75
2022/07/15 09:02:40;;;;;;;;;;;;;;;22.43;30.64;97808.94;4860886;29;1117;-75
2022/07/15 09:05:17;;;;;;;;;;;;;;;22.43;30.74;97808.16;4842120;29;1026;-75
2022/07/15 09:07:56;;;;;;;;;;;;;;;22.47;30.54;97814.50;4842680;29;983;-75
2022/07/15 09:10:21;;;;;;;;;;;;;;;22.42;30.55;97817.91;4842683;29;946;-75
2022/07/15 09:12:51;;;;;;;;;;;;;;;22.48;30.56;97807.59;4859769;29;962;-75
2022/07/15 09:15:35;;;;;;;;;;;;;;;22.45;30.80;97805.69;4860563;29;1907;-75
2022/07/15 09:18:13;;;;;;;;;;;;;;;22.49;30.71;97806.38;4860701;29;1082;-74
2022/07/15 09:20:39;;;;;;;;;;;;;;;22.53;30.39;97813.47;4860405;29;1017;-75
2022/07/15 09:23:05;;;;;;;;;;;;;;;22.88;29.97;97811.50;4860819;29;1017;-73
2022/07/15 09:25:33;;;;;;;;;;;;;;;22.62;30.20;97809.97;4860747;29;990;-73
2022/07/15 09:28:01;;;;;;;;;;;;;;;22.65;30.47;97809.06;4845363;29;1085;-75
2022/07/15 09:36:25;;;;;;;;;;;;;;;22.47;30.74;97803.19;4839005;29;1981;-76
2022/07/15 09:38:51;;;;;;;;;;;;;;;22.44;30.51;97795.59;4769623;30;1031;-75
2022/07/15 09:41:25;;;;;;;;;;;;;;;22.55;30.30;97796.81;4769925;30;1084;-76
2022/07/15 09:43:54;;;;;;;;;;;;;;;22.55;30.33;97796.81;4769907;30;965;-75
2022/07/15 09:46:20;;;;;;;;;;;;;;;22.48;30.56;97793.41;4770047;30;976;-75
2022/07/15 09:48:47;;;;;;;;;;;;;;;22.48;30.50;97793.41;4769731;30;1071;-75
2022/07/15 09:51:12;;;;;;;;;;;;;;;22.52;30.46;97794.88;4769482;30;1003;-75
2022/07/15 09:53:38;;;;;;;;;;;;;;;22.51;30.37;97792.50;4769711;30;1023;-75
2022/07/15 09:56:04;;;;;;;;;;;;;;;22.37;30.60;97776.75;4769794;30;1916;-75
2022/07/15 09:58:30;;;;;;;;;;;;;;;22.66;30.59;97787.94;4783248;30;1313;-75
2022/07/15 10:00:55;;;;;;;;;;;;;;;22.47;30.62;97774.81;4791296;30;1050;-75
2022/07/15 10:03:23;;;;;;;;;;;;;;;22.40;30.58;97777.91;4791023;30;1023;-75
2022/07/15 10:05:52;;;;;;;;;;;;;;;22.56;30.49;97777.75;4791174;30;972;-76
2022/07/15 10:08:18;;;;;;;;;;;;;;;22.40;30.62;97780.75;4815593;29;1019;-75
2022/07/15 10:10:43;;;;;;;;;;;;;;;22.44;30.52;97775.75;4827149;29;943;-74
2022/07/15 10:13:11;;;;;;;;;;;;;;;22.52;30.47;97777.09;4827273;29;974;-75
2022/07/15 10:15:37;;;;;;;;;;;;;;;22.51;30.51;97770.63;4863721;29;2033;-75
2022/07/15 10:18:09;;;;;;;;;;;;;;;22.56;30.58;97777.75;4902142;29;1042;-75
2022/07/15 10:20:41;;;;;;;;;;;;;;;22.57;30.42;97773.66;4902061;29;1051;-75
2022/07/15 10:23:24;;;;;;;;;;;;;;;22.54;30.40;97774.59;4903342;29;971;-75
2022/07/15 10:26:00;;;;;;;;;;;;;;;22.66;30.49;97767.31;4902320;29;954;-75
2022/07/15 10:28:32;;;;;;;;;;;;;;;22.59;30.35;97766.31;4903220;29;944;-74
2022/07/15 10:31:33;;;;;;;;;;;;;;;22.55;30.59;97759.16;4863278;29;1179;-75
2022/07/15 10:34:04;;;;;;;;;;;;;;;22.51;30.61;97764.94;4826477;29;969;-75
2022/07/15 10:36:45;;;;;;;;;;;;;;;22.65;30.27;97758.00;4826469;29;1916;-76
2022/07/15 10:39:11;;;;;;;;;;;;;;;22.49;30.63;97761.00;4826763;29;1025;-75
2022/07/15 10:41:56;;;;;;;;;;;;;;;22.39;31.01;97747.97;4826587;29;940;-75
2022/07/15 10:44:22;;;;;;;;;;;;;;;22.41;30.65;97754.75;4826300;29;990;-75
2022/07/15 10:46:48;;;;;;;;;;;;;;;22.47;30.48;97752.16;4826515;29;1024;-75
2022/07/15 10:49:26;;;;;;;;;;;;;;;22.38;30.83;97766.22;4826354;29;1040;-75
2022/07/15 10:51:52;;;;;;;;;;;;;;;22.43;30.84;97757.13;4826564;29;1501;-75
2022/07/15 10:54:17;;;;;;;;;;;;;;;22.47;30.66;97754.97;4811302;29;933;-75
2022/07/15 10:56:46;;;;;;;;;;;;;;;22.51;30.55;97758.50;4826357;29;1915;-75
2022/07/15 10:59:20;;;;;;;;;;;;;;;22.48;30.55;97754.50;4811215;29;1037;-75
2022/07/15 11:02:07;;;;;;;;;;;;;;;22.46;30.77;97734.34;4811330;29;1113;-75
2022/07/15 11:04:33;;;;;;;;;;;;;;;22.43;30.70;97742.97;4826025;29;1087;-75
2022/07/15 11:07:01;;;;;;;;;;;;;;;22.33;30.79;97740.06;4832804;29;1063;-75
2022/07/15 11:09:44;;;;;;;;;;;;;;;22.25;30.86;97741.53;4902061;29;986;-74
2022/07/15 11:12:09;;;;;;;;;;;;;;;22.26;30.95;97748.78;4902476;29;1141;-75
2022/07/15 11:14:43;;;;;;;;;;;;;;;22.44;30.69;97741.72;4902207;29;892;-75
2022/07/15 11:17:10;;;;;;;;;;;;;;;22.56;30.52;97732.38;4902338;29;1119;-75
2022/07/15 11:19:35;;;;;;;;;;;;;;;22.42;30.51;97747.06;4902471;29;950;-75
2022/07/15 11:22:01;;;;;;;;;;;;;;;22.49;30.43;97750.44;4902200;29;926;-75
2022/07/15 11:24:27;;;;;;;;;;;;;;;22.45;30.65;97748.97;4899933;29;1036;-75
2022/07/15 11:26:53;;;;;;;;;;;;;;;22.48;30.55;97748.06;4899829;29;1082;-75
2022/07/15 11:29:18;;;;;;;;;;;;;;;22.58;30.58;97752.56;4900010;29;997;-75
2022/07/15 11:31:43;;;;;;;;;;;;;;;22.51;30.45;97747.16;4899664;29;992;-76
2022/07/15 11:34:09;;;;;;;;;;;;;;;22.58;30.52;97749.72;4880772;29;1033;-75
2022/07/15 11:36:34;;;;;;;;;;;;;;;22.55;30.52;97742.16;4881023;29;1982;-75
2022/07/15 11:39:00;;;;;;;;;;;;;;;22.55;30.38;97745.78;4880929;29;964;-75
2022/07/15 11:46:54;;;;;;;;;;;;;;;22.52;30.75;97748.72;4880573;29;982;-75
2022/07/15 11:49:27;;;;;;;;;;;;;;;22.30;30.66;97737.34;4843468;29;995;-75
2022/07/15 11:51:52;;;;;;;;;;;;;;;22.31;31.02;97738.91;4843768;29;982;-75
2022/07/15 11:54:18;;;;;;;;;;;;;;;22.47;30.67;97724.56;4842991;29;963;-75
2022/07/15 11:56:43;;;;;;;;;;;;;;;22.53;30.44;97738.97;4843607;29;1915;-75
2022/07/15 11:59:08;;;;;;;;;;;;;;;22.49;30.58;97735.47;4843636;29;1000;-75
2022/07/15 12:01:34;;;;;;;;;;;;;;;22.45;30.65;97737.66;4843203;29;1273;-75
2022/07/15 12:03:59;;;;;;;;;;;;;;;22.61;30.14;97740.31;4843769;29;1133;-75
2022/07/15 12:06:25;;;;;;;;;;;;;;;22.39;30.42;97747.97;4843283;29;998;-74
2022/07/15 12:08:54;;;;;;;;;;;;;;;22.55;30.34;97733.66;4843560;29;1051;-75
2022/07/15 12:11:22;;;;;;;;;;;;;;;22.38;30.42;97743.53;4850352;29;974;-75
2022/07/15 12:14:08;;;;;;;;;;;;;;;22.58;30.45;97744.06;4861509;29;989;-75
2022/07/15 12:16:34;;;;;;;;;;;;;;;22.54;30.24;97743.41;4861437;29;1980;-74
2022/07/15 12:19:07;;;;;;;;;;;;;;;22.44;30.53;97736.84;4861697;29;952;-74
2022/07/15 12:21:32;;;;;;;;;;;;;;;22.37;30.66;97739.91;4898132;29;1000;-75
2022/07/15 12:23:59;;;;;;;;;;;;;;;22.39;30.57;97743.09;4883552;29;995;-75
2022/07/15 12:26:24;;;;;;;;;;;;;;;22.30;30.54;97737.34;4898981;29;902;-75
2022/07/15 12:28:54;;;;;;;;;;;;;;;22.34;30.53;97735.97;4900929;29;922;-75
2022/07/15 12:31:28;;;;;;;;;;;;;;;22.50;30.47;97728.56;4900119;29;999;-75
2022/07/15 12:33:54;;;;;;;;;;;;;;;22.45;30.17;97731.97;4901142;29;923;-75
2022/07/15 12:36:20;;;;;;;;;;;;;;;22.42;30.28;97733.66;4861317;29;1978;-75
2022/07/15 12:39:00;;;;;;;;;;;;;;;22.53;30.04;97738.97;4861305;29;976;-75
2022/07/15 12:41:25;;;;;;;;;;;;;;;22.61;29.97;97729.75;4861429;29;988;-75
2022/07/15 12:43:57;;;;;;;;;;;;;;;22.46;30.42;97725.03;4861008;29;1005;-75
2022/07/15 12:46:41;;;;;;;;;;;;;;;22.59;29.82;97720.16;4861332;29;1010;-75
2022/07/15 12:49:07;;;;;;;;;;;;;;;22.51;30.11;97730.13;4861228;29;964;-75
2022/07/15 12:51:32;;;;;;;;;;;;;;;22.58;29.84;97729.88;4861222;29;1032;-75
2022/07/15 12:54:04;;;;;;;;;;;;;;;22.48;30.00;97736.72;4860984;29;1789;-75
2022/07/15 12:56:30;;;;;;;;;;;;;;;22.43;30.19;97740.13;4860879;29;1989;-75
2022/07/15 12:58:55;;;;;;;;;;;;;;;22.35;30.39;97734.72;4845658;29;962;-75
2022/07/15 13:01:20;;;;;;;;;;;;;;;22.29;30.37;97736.53;4845450;29;1356;-75
2022/07/15 13:03:46;;;;;;;;;;;;;;;22.48;30.22;97731.84;4860740;29;1005;-75
2022/07/15 13:06:12;;;;;;;;;;;;;;;22.41;30.19;97731.28;4827276;29;1205;-75
2022/07/15 13:08:39;;;;;;;;;;;;;;;22.30;30.52;97726.78;4843045;29;1114;-75
2022/07/15 13:11:05;;;;;;;;;;;;;;;22.45;30.22;97734.81;4860646;29;1024;-75
2022/07/15 13:13:32;;;;;;;;;;;;;;;22.29;30.56;97733.72;4860741;29;985;-75
2022/07/15 13:15:58;;;;;;;;;;;;;;;22.39;30.40;97734.59;4860885;29;1903;-75
2022/07/15 13:18:25;;;;;;;;;;;;;;;22.51;30.17;97730.13;4860972;29;1035;-75
2022/07/15 13:20:51;;;;;;;;;;;;;;;22.53;29.94;97727.63;4860473;29;982;-75
2022/07/15 13:23:16;;;;;;;;;;;;;;;22.08;30.22;97686.22;4860725;29;1009;-75
2022/07/15 13:25:42;;;;;;;;;;;;;;;22.29;30.37;97736.53;4860579;29;969;-74